sensor_id;sensor_type;location;lat;lon;timestamp;pressure;altitude;pressure_sealevel;temperature;humidity
11936;BME280;6027;48.576;9.180;2023-02-28T00:00:24;97431.31;;;-1.88;70.31
11936;BME280;6027;48.576;9.180;2023-02-28T00:02:50;97423.34;;;-1.85;69.98
11936;BME280;6027;48.576;9.180;2023-02-28T00:05:18;97430.84;;;-1.80;70.06
11936;BME280;6027;48.576;9.180;2023-02-28T00:07:45;97428.34;;;-1.82;69.91
11936;BME280;6027;48.576;9.180;2023-02-28T00:10:17;97430.50;;;-1.74;69.84
11936;BME280;6027;48.576;9.180;2023-02-28T00:12:49;97433.19;;;-1.76;70.17
11936;BME280;6027;48.576;9.180;2023-02-28T00:15:14;97418.63;;;-1.78;70.01
11936;BME280;6027;48.576;9.180;2023-02-28T00:17:40;97442.34;;;-1.70;69.82
11936;BME280;6027;48.576;9.180;2023-02-28T00:20:07;97429.53;;;-1.73;69.86
11936;BME280;6027;48.576;9.180;2023-02-28T00:22:44;97435.56;;;-1.73;69.94
11936;BME280;6027;48.576;9.180;2023-02-28T00:25:11;97429.75;;;-1.76;70.34
11936;BME280;6027;48.576;9.180;2023-02-28T00:27:38;97425.75;;;-1.82;70.24
11936;BME280;6027;48.576;9.180;2023-02-28T00:30:05;97429.75;;;-1.76;69.83
11936;BME280;6027;48.576;9.180;2023-02-28T00:32:30;97430.50;;;-1.74;70.10
11936;BME280;6027;48.576;9.180;2023-02-28T00:34:56;97426.22;;;-1.75;70.27
11936;BME280;6027;48.576;9.180;2023-02-28T00:37:22;97421.97;;;-1.76;70.39
11936;BME280;6027;48.576;9.180;2023-02-28T00:39:47;97422.41;;;-1.84;71.24
11936;BME280;6027;48.576;9.180;2023-02-28T00:42:13;97421.84;;;-1.89;71.39
11936;BME280;6027;48.576;9.180;2023-02-28T00:44:38;97425.09;;;-1.85;71.08
11936;BME280;6027;48.576;9.180;2023-02-28T00:47:04;97424.81;;;-1.81;71.23
11936;BME280;6027;48.576;9.180;2023-02-28T00:49:29;97422.69;;;-1.88;71.13
11936;BME280;6027;48.576;9.180;2023-02-28T00:51:55;97421.66;;;-1.86;71.40
11936;BME280;6027;48.576;9.180;2023-02-28T00:54:22;97421.75;;;-1.87;71.26
11936;BME280;6027;48.576;9.180;2023-02-28T00:56:48;97420.94;;;-1.88;71.16
11936;BME280;6027;48.576;9.180;2023-02-28T00:59:15;97420.00;;;-1.87;71.23
11936;BME280;6027;48.576;9.180;2023-02-28T01:01:42;97420.47;;;-1.94;71.89
11936;BME280;6027;48.576;9.180;2023-02-28T01:04:08;97415.66;;;-1.86;72.01
11936;BME280;6027;48.576;9.180;2023-02-28T01:06:34;97420.34;;;-2.07;72.53
11936;BME280;6027;48.576;9.180;2023-02-28T01:09:00;97410.19;;;-1.96;72.62
11936;BME280;6027;48.576;9.180;2023-02-28T01:11:25;97417.50;;;-2.02;73.03
11936;BME280;6027;48.576;9.180;2023-02-28T01:13:51;97415.72;;;-2.02;73.27
11936;BME280;6027;48.576;9.180;2023-02-28T01:16:17;97420.66;;;-1.97;73.44
11936;BME280;6027;48.576;9.180;2023-02-28T01:18:42;97422.16;;;-1.93;73.18
11936;BME280;6027;48.576;9.180;2023-02-28T01:21:11;97419.72;;;-1.96;73.45
11936;BME280;6027;48.576;9.180;2023-02-28T01:23:37;97419.81;;;-1.98;73.85
11936;BME280;6027;48.576;9.180;2023-02-28T01:26:05;97419.91;;;-1.99;73.76
11936;BME280;6027;48.576;9.180;2023-02-28T01:28:31;97413.06;;;-2.00;73.78
11936;BME280;6027;48.576;9.180;2023-02-28T01:30:56;97418.25;;;-2.00;74.04
11936;BME280;6027;48.576;9.180;2023-02-28T01:33:22;97406.38;;;-2.04;73.99
11936;BME280;6027;48.576;9.180;2023-02-28T01:35:47;97412.13;;;-1.99;73.90
11936;BME280;6027;48.576;9.180;2023-02-28T01:38:13;97412.03;;;-1.98;73.77
11936;BME280;6027;48.576;9.180;2023-02-28T01:40:38;97408.03;;;-2.03;74.67
11936;BME280;6027;48.576;9.180;2023-02-28T01:43:24;97410.28;;;-1.97;74.13
11936;BME280;6027;48.576;9.180;2023-02-28T01:45:51;97406.09;;;-2.00;74.17
11936;BME280;6027;48.576;9.180;2023-02-28T01:48:18;97397.84;;;-2.06;74.91
11936;BME280;6027;48.576;9.180;2023-02-28T01:50:45;97409.22;;;-2.09;75.42
11936;BME280;6027;48.576;9.180;2023-02-28T01:53:16;97402.09;;;-2.05;75.39
11936;BME280;6027;48.576;9.180;2023-02-28T01:55:49;97395.81;;;-2.01;75.44
11936;BME280;6027;48.576;9.180;2023-02-28T01:58:16;97396.47;;;-1.98;75.41
11936;BME280;6027;48.576;9.180;2023-02-28T02:00:42;97400.00;;;-1.99;75.25
11936;BME280;6027;48.576;9.180;2023-02-28T02:03:13;97397.66;;;-2.03;75.48
11936;BME280;6027;48.576;9.180;2023-02-28T02:05:40;97397.19;;;-2.10;76.37
11936;BME280;6027;48.576;9.180;2023-02-28T02:08:12;97387.66;;;-2.10;76.44
11936;BME280;6027;48.576;9.180;2023-02-28T02:29:42;97359.03;;;-2.08;77.02
11936;BME280;6027;48.576;9.180;2023-02-28T02:32:14;97356.91;;;-2.16;77.64
11936;BME280;6027;48.576;9.180;2023-02-28T02:37:27;97364.03;;;-2.05;77.83
11936;BME280;6027;48.576;9.180;2023-02-28T02:40:16;97361.91;;;-2.13;78.07
11936;BME280;6027;48.576;9.180;2023-02-28T02:43:00;97365.63;;;-2.17;78.27
11936;BME280;6027;48.576;9.180;2023-02-28T02:45:54;97370.78;;;-2.02;78.22
11936;BME280;6027;48.576;9.180;2023-02-28T02:48:25;97373.94;;;-2.12;78.69
11936;BME280;6027;48.576;9.180;2023-02-28T02:50:58;97366.44;;;-2.16;79.13
11936;BME280;6027;48.576;9.180;2023-02-28T02:53:34;97368.56;;;-2.09;78.80
11936;BME280;6027;48.576;9.180;2023-02-28T02:56:03;97368.47;;;-2.21;79.78
11936;BME280;6027;48.576;9.180;2023-02-28T02:58:35;97367.28;;;-2.16;80.12
11936;BME280;6027;48.576;9.180;2023-02-28T03:01:10;97372.28;;;-2.13;79.84
11936;BME280;6027;48.576;9.180;2023-02-28T03:03:37;97371.16;;;-2.09;80.37
11936;BME280;6027;48.576;9.180;2023-02-28T03:06:04;97365.53;;;-2.15;80.38
11936;BME280;6027;48.576;9.180;2023-02-28T03:11:16;97387.09;;;-2.15;80.84
11936;BME280;6027;48.576;9.180;2023-02-28T03:18:54;97376.16;;;-2.20;81.80
11936;BME280;6027;48.576;9.180;2023-02-28T03:21:43;97376.53;;;-2.26;82.41
11936;BME280;6027;48.576;9.180;2023-02-28T03:26:50;97374.13;;;-2.15;82.65
11936;BME280;6027;48.576;9.180;2023-02-28T03:31:51;97378.00;;;-2.08;82.37
11936;BME280;6027;48.576;9.180;2023-02-28T03:34:25;97371.63;;;-2.02;82.43
11936;BME280;6027;48.576;9.180;2023-02-28T03:36:55;97372.28;;;-1.98;82.45
11936;BME280;6027;48.576;9.180;2023-02-28T03:39:43;97365.25;;;-1.96;82.47
11936;BME280;6027;48.576;9.180;2023-02-28T03:42:23;97335.03;;;-2.26;83.18
11936;BME280;6027;48.576;9.180;2023-02-28T03:45:18;97357.56;;;-1.98;82.99
11936;BME280;6027;48.576;9.180;2023-02-28T03:50:16;97375.16;;;-2.03;84.26
11936;BME280;6027;48.576;9.180;2023-02-28T03:56:11;97370.63;;;-1.99;85.20
11936;BME280;6027;48.576;9.180;2023-02-28T03:58:57;97363.00;;;-2.02;85.74
11936;BME280;6027;48.576;9.180;2023-02-28T04:01:38;97382.66;;;-1.98;86.07
11936;BME280;6027;48.576;9.180;2023-02-28T04:04:07;97380.06;;;-1.98;86.34
11936;BME280;6027;48.576;9.180;2023-02-28T04:06:34;97375.31;;;-2.06;87.17
11936;BME280;6027;48.576;9.180;2023-02-28T04:08:59;97373.56;;;-2.05;87.59
11936;BME280;6027;48.576;9.180;2023-02-28T04:11:49;97372.81;;;-2.08;87.96
11936;BME280;6027;48.576;9.180;2023-02-28T04:14:17;97373.13;;;-2.12;88.40
11936;BME280;6027;48.576;9.180;2023-02-28T04:16:43;97369.88;;;-2.01;88.13
11936;BME280;6027;48.576;9.180;2023-02-28T04:19:10;97382.66;;;-1.98;88.18
11936;BME280;6027;48.576;9.180;2023-02-28T04:21:41;97391.47;;;-2.01;87.91
11936;BME280;6027;48.576;9.180;2023-02-28T04:24:10;97374.13;;;-2.00;87.91
11936;BME280;6027;48.576;9.180;2023-02-28T04:26:44;97374.22;;;-2.02;87.98
11936;BME280;6027;48.576;9.180;2023-02-28T04:29:12;97368.56;;;-2.09;88.56
11936;BME280;6027;48.576;9.180;2023-02-28T04:31:38;97375.25;;;-2.04;88.40
11936;BME280;6027;48.576;9.180;2023-02-28T04:34:05;97377.38;;;-1.97;88.37
11936;BME280;6027;48.576;9.180;2023-02-28T04:36:31;97366.00;;;-1.94;87.55
11936;BME280;6027;48.576;9.180;2023-02-28T04:38:56;97369.03;;;-2.02;88.15
11936;BME280;6027;48.576;9.180;2023-02-28T04:41:22;97367.38;;;-2.03;88.20
11936;BME280;6027;48.576;9.180;2023-02-28T04:43:48;97365.16;;;-1.95;88.49
11936;BME280;6027;48.576;9.180;2023-02-28T04:46:13;97372.28;;;-1.98;88.38
11936;BME280;6027;48.576;9.180;2023-02-28T04:48:39;97370.44;;;-1.96;89.16
11936;BME280;6027;48.576;9.180;2023-02-28T04:51:08;97371.91;;;-2.06;90.00
11936;BME280;6027;48.576;9.180;2023-02-28T04:53:36;97378.94;;;-2.09;89.91
11936;BME280;6027;48.576;9.180;2023-02-28T04:56:02;97370.97;;;-2.05;90.64
11936;BME280;6027;48.576;9.180;2023-02-28T04:58:28;97378.56;;;-2.02;90.85
11936;BME280;6027;48.576;9.180;2023-02-28T05:03:42;97368.38;;;-2.05;91.21
11936;BME280;6027;48.576;9.180;2023-02-28T05:06:09;97367.19;;;-2.00;91.63
11936;BME280;6027;48.576;9.180;2023-02-28T05:08:34;97370.63;;;-1.99;91.47
11936;BME280;6027;48.576;9.180;2023-02-28T05:11:01;97373.88;;;-1.96;91.15
11936;BME280;6027;48.576;9.180;2023-02-28T05:13:27;97377.28;;;-1.95;91.60
11936;BME280;6027;48.576;9.180;2023-02-28T05:15:53;97385.81;;;-1.93;91.33
11936;BME280;6027;48.576;9.180;2023-02-28T05:18:18;97380.16;;;-1.86;91.03
11936;BME280;6027;48.576;9.180;2023-02-28T05:20:44;97385.34;;;-1.86;90.99
11936;BME280;6027;48.576;9.180;2023-02-28T05:23:14;97395.63;;;-1.84;90.70
11936;BME280;6027;48.576;9.180;2023-02-28T05:25:40;97384.88;;;-1.78;90.91
11936;BME280;6027;48.576;9.180;2023-02-28T05:28:07;97396.56;;;-1.85;91.42
11936;BME280;6027;48.576;9.180;2023-02-28T05:30:32;97397.13;;;-1.80;91.25
11936;BME280;6027;48.576;9.180;2023-02-28T05:32:58;97391.19;;;-1.82;91.50
11936;BME280;6027;48.576;9.180;2023-02-28T05:35:25;97392.66;;;-1.92;91.55
11936;BME280;6027;48.576;9.180;2023-02-28T05:37:50;97393.88;;;-1.84;91.68
11936;BME280;6027;48.576;9.180;2023-02-28T05:40:16;97393.13;;;-1.86;91.74
11936;BME280;6027;48.576;9.180;2023-02-28T05:42:42;97397.69;;;-1.75;91.47
11936;BME280;6027;48.576;9.180;2023-02-28T05:45:09;97397.69;;;-1.75;90.74
11936;BME280;6027;48.576;9.180;2023-02-28T05:47:35;97398.69;;;-1.78;91.13
11936;BME280;6027;48.576;9.180;2023-02-28T05:50:00;97389.06;;;-1.76;91.35
11936;BME280;6027;48.576;9.180;2023-02-28T05:52:27;97400.47;;;-1.78;91.58
11936;BME280;6027;48.576;9.180;2023-02-28T05:54:53;97387.75;;;-1.83;91.02
11936;BME280;6027;48.576;9.180;2023-02-28T05:57:19;97398.69;;;-1.78;90.81
11936;BME280;6027;48.576;9.180;2023-02-28T05:59:44;97394.78;;;-1.85;90.91
11936;BME280;6027;48.576;9.180;2023-02-28T06:02:14;97391.94;;;-1.80;91.13
11936;BME280;6027;48.576;9.180;2023-02-28T06:04:40;97386.81;;;-1.82;91.12
11936;BME280;6027;48.576;9.180;2023-02-28T06:07:07;97387.00;;;-1.85;91.49
11936;BME280;6027;48.576;9.180;2023-02-28T06:09:35;97397.22;;;-1.82;90.95
11936;BME280;6027;48.576;9.180;2023-02-28T06:12:02;97394.69;;;-1.83;90.86
11936;BME280;6027;48.576;9.180;2023-02-28T06:14:29;97403.88;;;-1.78;91.16
11936;BME280;6027;48.576;9.180;2023-02-28T06:16:57;97402.78;;;-1.73;90.61
11936;BME280;6027;48.576;9.180;2023-02-28T06:19:23;97414.44;;;-1.66;90.24
11936;BME280;6027;48.576;9.180;2023-02-28T06:21:51;97407.84;;;-1.72;89.55
11936;BME280;6027;48.576;9.180;2023-02-28T06:24:20;97424.34;;;-1.73;88.86
11936;BME280;6027;48.576;9.180;2023-02-28T06:26:46;97414.19;;;-1.76;89.36
11936;BME280;6027;48.576;9.180;2023-02-28T06:29:12;97416.56;;;-1.73;89.66
11936;BME280;6027;48.576;9.180;2023-02-28T06:31:38;97419.63;;;-1.66;89.21
11936;BME280;6027;48.576;9.180;2023-02-28T06:34:04;97416.19;;;-1.67;88.56
11936;BME280;6027;48.576;9.180;2023-02-28T06:36:29;97423.91;;;-1.65;87.89
11936;BME280;6027;48.576;9.180;2023-02-28T06:38:55;97421.47;;;-1.68;88.15
11936;BME280;6027;48.576;9.180;2023-02-28T06:41:23;97404.25;;;-1.84;87.65
11936;BME280;6027;48.576;9.180;2023-02-28T06:43:48;97425.47;;;-1.63;87.54
11936;BME280;6027;48.576;9.180;2023-02-28T06:46:14;97420.00;;;-1.58;87.38
11936;BME280;6027;48.576;9.180;2023-02-28T06:51:15;97428.81;;;-1.61;86.75
11936;BME280;6027;48.576;9.180;2023-02-28T06:53:41;97428.06;;;-1.63;86.88
11936;BME280;6027;48.576;9.180;2023-02-28T06:56:12;97428.06;;;-1.63;86.95
11936;BME280;6027;48.576;9.180;2023-02-28T06:58:38;97444.94;;;-1.56;86.46
11936;BME280;6027;48.576;9.180;2023-02-28T07:01:05;97444.03;;;-1.55;86.38
11936;BME280;6027;48.576;9.180;2023-02-28T07:03:31;97437.25;;;-1.57;86.01
11936;BME280;6027;48.576;9.180;2023-02-28T07:05:56;97438.34;;;-1.47;85.77
11936;BME280;6027;48.576;9.180;2023-02-28T07:08:23;97443.47;;;-1.60;86.29
11936;BME280;6027;48.576;9.180;2023-02-28T07:10:56;97444.13;;;-1.56;86.32
11936;BME280;6027;48.576;9.180;2023-02-28T07:13:22;97439.75;;;-1.56;86.17
11936;BME280;6027;48.576;9.180;2023-02-28T07:18:20;97444.56;;;-1.50;86.66
11936;BME280;6027;48.576;9.180;2023-02-28T07:20:45;97445.97;;;-1.58;85.82
11936;BME280;6027;48.576;9.180;2023-02-28T07:23:11;97449.66;;;-1.62;86.24
11936;BME280;6027;48.576;9.180;2023-02-28T07:25:36;97455.69;;;-1.62;86.52
11936;BME280;6027;48.576;9.180;2023-02-28T07:28:02;97458.19;;;-1.46;85.68
11936;BME280;6027;48.576;9.180;2023-02-28T07:30:27;97451.59;;;-1.52;86.23
11936;BME280;6027;48.576;9.180;2023-02-28T07:32:53;97454.50;;;-1.56;85.56
11936;BME280;6027;48.576;9.180;2023-02-28T07:35:21;97461.06;;;-1.51;85.55
11936;BME280;6027;48.576;9.180;2023-02-28T07:37:47;97449.84;;;-1.51;85.93
11936;BME280;6027;48.576;9.180;2023-02-28T07:40:12;97455.41;;;-1.43;85.69
11936;BME280;6027;48.576;9.180;2023-02-28T07:42:39;97451.63;;;-1.37;85.32
11936;BME280;6027;48.576;9.180;2023-02-28T07:45:06;97449.75;;;-1.35;85.00
11936;BME280;6027;48.576;9.180;2023-02-28T07:47:31;97439.09;;;-1.45;84.78
11936;BME280;6027;48.576;9.180;2023-02-28T07:49:57;97453.81;;;-1.31;85.20
11936;BME280;6027;48.576;9.180;2023-02-28T07:52:24;97441.50;;;-1.42;85.09
11936;BME280;6027;48.576;9.180;2023-02-28T07:54:50;97454.22;;;-1.37;85.13
11936;BME280;6027;48.576;9.180;2023-02-28T07:57:15;97457.44;;;-1.34;84.59
11936;BME280;6027;48.576;9.180;2023-02-28T07:59:41;97456.50;;;-1.33;84.40
11936;BME280;6027;48.576;9.180;2023-02-28T08:02:18;97450.28;;;-1.30;84.38
11936;BME280;6027;48.576;9.180;2023-02-28T08:04:44;97458.25;;;-1.33;84.65
11936;BME280;6027;48.576;9.180;2023-02-28T08:07:12;97456.03;;;-1.25;84.53
11936;BME280;6027;48.576;9.180;2023-02-28T08:09:41;97464.00;;;-1.28;83.38
11936;BME280;6027;48.576;9.180;2023-02-28T08:12:08;97467.34;;;-1.26;83.68
11936;BME280;6027;48.576;9.180;2023-02-28T08:14:35;97477.66;;;-1.25;83.38
11936;BME280;6027;48.576;9.180;2023-02-28T08:17:01;97471.25;;;-1.19;82.92
11936;BME280;6027;48.576;9.180;2023-02-28T08:19:27;97474.78;;;-1.20;82.63
11936;BME280;6027;48.576;9.180;2023-02-28T08:21:53;97478.88;;;-1.16;83.56
11936;BME280;6027;48.576;9.180;2023-02-28T08:24:19;97478.38;;;-1.09;81.46
11936;BME280;6027;48.576;9.180;2023-02-28T08:26:44;97478.88;;;-1.16;81.32
11936;BME280;6027;48.576;9.180;2023-02-28T08:29:10;97477.19;;;-1.17;81.89
11936;BME280;6027;48.576;9.180;2023-02-28T08:31:35;97479.47;;;-1.13;81.03
11936;BME280;6027;48.576;9.180;2023-02-28T08:34:12;97476.41;;;-1.05;80.79
11936;BME280;6027;48.576;9.180;2023-02-28T08:36:39;97479.66;;;-1.01;81.24
11936;BME280;6027;48.576;9.180;2023-02-28T08:39:05;97474.75;;;-1.06;80.07
11936;BME280;6027;48.576;9.180;2023-02-28T08:41:32;97474.28;;;-0.98;79.50
11936;BME280;6027;48.576;9.180;2023-02-28T08:43:57;97474.38;;;-1.00;78.76
11936;BME280;6027;48.576;9.180;2023-02-28T08:46:23;97480.22;;;-0.96;78.32
11936;BME280;6027;48.576;9.180;2023-02-28T08:48:52;97487.50;;;-0.89;77.75
11936;BME280;6027;48.576;9.180;2023-02-28T08:51:18;97484.91;;;-0.89;77.85
11936;BME280;6027;48.576;9.180;2023-02-28T08:53:55;97491.50;;;-0.83;77.27
11936;BME280;6027;48.576;9.180;2023-02-28T08:56:21;97489.38;;;-0.91;78.00
11936;BME280;6027;48.576;9.180;2023-02-28T08:58:48;97493.91;;;-0.80;77.42
11936;BME280;6027;48.576;9.180;2023-02-28T09:03:41;97493.59;;;-0.76;76.89
11936;BME280;6027;48.576;9.180;2023-02-28T09:06:08;97493.31;;;-0.71;76.96
11936;BME280;6027;48.576;9.180;2023-02-28T09:08:34;97495.06;;;-0.72;77.33
11936;BME280;6027;48.576;9.180;2023-02-28T09:11:00;97475.41;;;-0.76;77.34
11936;BME280;6027;48.576;9.180;2023-02-28T09:13:27;97491.06;;;-0.63;76.61
11936;BME280;6027;48.576;9.180;2023-02-28T09:15:53;97494.84;;;-0.54;76.88
11936;BME280;6027;48.576;9.180;2023-02-28T09:18:19;97504.13;;;-0.50;76.08
11936;BME280;6027;48.576;9.180;2023-02-28T09:20:45;97503.63;;;-0.43;75.02
11936;BME280;6027;48.576;9.180;2023-02-28T09:23:12;97508.97;;;-0.31;74.83
11936;BME280;6027;48.576;9.180;2023-02-28T09:25:38;97510.09;;;-0.36;74.35
11936;BME280;6027;48.576;9.180;2023-02-28T09:28:03;97506.91;;;-0.26;74.20
11936;BME280;6027;48.576;9.180;2023-02-28T09:30:30;97508.19;;;-0.19;73.96
11936;BME280;6027;48.576;9.180;2023-02-28T09:32:55;97516.09;;;-0.08;74.24
11936;BME280;6027;48.576;9.180;2023-02-28T09:35:21;97518.78;;;-0.22;72.82
11936;BME280;6027;48.576;9.180;2023-02-28T09:37:50;97511.38;;;-0.28;72.51
11936;BME280;6027;48.576;9.180;2023-02-28T09:40:18;97513.59;;;-0.22;72.54
11936;BME280;6027;48.576;9.180;2023-02-28T09:42:47;97512.59;;;-0.34;72.33
11936;BME280;6027;48.576;9.180;2023-02-28T09:45:33;97514.16;;;-0.31;72.29
11936;BME280;6027;48.576;9.180;2023-02-28T09:48:10;97510.34;;;-0.26;72.72
11936;BME280;6027;48.576;9.180;2023-02-28T09:50:50;97519.41;;;-0.19;73.29
11936;BME280;6027;48.576;9.180;2023-02-28T09:53:26;97518.97;;;-0.25;74.28
11936;BME280;6027;48.576;9.180;2023-02-28T09:56:05;97520.34;;;-0.20;74.22
11936;BME280;6027;48.576;9.180;2023-02-28T10:01:24;97520.97;;;-0.16;73.38
11936;BME280;6027;48.576;9.180;2023-02-28T10:04:16;97537.66;;;-0.06;74.11
11936;BME280;6027;48.576;9.180;2023-02-28T10:06:51;97533.28;;;-0.06;71.44
11936;BME280;6027;48.576;9.180;2023-02-28T10:09:24;97531.34;;;-0.02;71.61
11936;BME280;6027;48.576;9.180;2023-02-28T10:11:53;97541.13;;;0.07;71.21
11936;BME280;6027;48.576;9.180;2023-02-28T10:14:24;97541.22;;;0.06;70.78
11936;BME280;6027;48.576;9.180;2023-02-28T10:16:55;97537.19;;;0.14;70.94
11936;BME280;6027;48.576;9.180;2023-02-28T10:22:43;97546.88;;;0.12;70.77
11936;BME280;6027;48.576;9.180;2023-02-28T10:25:24;97542.59;;;0.11;69.99
11936;BME280;6027;48.576;9.180;2023-02-28T10:30:18;97542.59;;;0.24;69.81
11936;BME280;6027;48.576;9.180;2023-02-28T10:32:49;97535.22;;;0.30;69.87
11936;BME280;6027;48.576;9.180;2023-02-28T10:35:26;97535.66;;;0.37;70.01
11936;BME280;6027;48.576;9.180;2023-02-28T10:37:58;97540.47;;;0.56;70.22
11936;BME280;6027;48.576;9.180;2023-02-28T10:59:03;97535.31;;;0.80;66.87
11936;BME280;6027;48.576;9.180;2023-02-28T11:01:46;97530.63;;;0.85;66.67
11936;BME280;6027;48.576;9.180;2023-02-28T11:04:34;97535.31;;;1.05;66.61
11936;BME280;6027;48.576;9.180;2023-02-28T11:07:06;97537.97;;;1.16;66.43
11936;BME280;6027;48.576;9.180;2023-02-28T11:09:39;97535.25;;;1.18;66.23
11936;BME280;6027;48.576;9.180;2023-02-28T11:12:08;97534.78;;;1.13;65.84
11936;BME280;6027;48.576;9.180;2023-02-28T11:14:55;97540.00;;;1.13;65.89
11936;BME280;6027;48.576;9.180;2023-02-28T11:17:28;97544.91;;;1.04;64.89
11936;BME280;6027;48.576;9.180;2023-02-28T11:20:00;97544.59;;;1.09;65.54
11936;BME280;6027;48.576;9.180;2023-02-28T11:22:30;97547.19;;;1.09;66.60
11936;BME280;6027;48.576;9.180;2023-02-28T11:25:06;97542.81;;;1.10;65.93
11936;BME280;6027;48.576;9.180;2023-02-28T11:29:59;97546.53;;;1.18;65.43
11936;BME280;6027;48.576;9.180;2023-02-28T11:32:26;97553.50;;;1.30;65.42
11936;BME280;6027;48.576;9.180;2023-02-28T11:35:15;97544.44;;;1.23;65.54
11936;BME280;6027;48.576;9.180;2023-02-28T11:37:45;97535.16;;;1.19;65.72
11936;BME280;6027;48.576;9.180;2023-02-28T11:43:28;97532.44;;;1.33;64.31
11936;BME280;6027;48.576;9.180;2023-02-28T11:48:37;97524.50;;;1.22;64.88
11936;BME280;6027;48.576;9.180;2023-02-28T11:59:48;97521.38;;;1.17;65.37
11936;BME280;6027;48.576;9.180;2023-02-28T12:02:30;97519.66;;;1.42;66.04
11936;BME280;6027;48.576;9.180;2023-02-28T12:10:25;97513.03;;;1.96;63.02
11936;BME280;6027;48.576;9.180;2023-02-28T12:18:57;97508.38;;;2.35;62.23
11936;BME280;6027;48.576;9.180;2023-02-28T12:22:49;97498.16;;;2.32;61.83
11936;BME280;6027;48.576;9.180;2023-02-28T12:27:38;97497.88;;;2.48;60.94
11936;BME280;6027;48.576;9.180;2023-02-28T12:30:16;97502.09;;;2.37;61.02
11936;BME280;6027;48.576;9.180;2023-02-28T12:32:55;97500.94;;;2.41;60.81
11936;BME280;6027;48.576;9.180;2023-02-28T12:35:26;97503.78;;;2.38;60.72
11936;BME280;6027;48.576;9.180;2023-02-28T12:40:32;97494.38;;;2.25;61.25
11936;BME280;6027;48.576;9.180;2023-02-28T12:43:03;97474.03;;;2.17;60.93
11936;BME280;6027;48.576;9.180;2023-02-28T12:45:42;97490.22;;;2.33;61.08
11936;BME280;6027;48.576;9.180;2023-02-28T12:48:14;97492.72;;;2.35;61.87
11936;BME280;6027;48.576;9.180;2023-02-28T12:50:41;97481.47;;;2.46;62.21
11936;BME280;6027;48.576;9.180;2023-02-28T12:53:27;97480.88;;;2.64;61.19
11936;BME280;6027;48.576;9.180;2023-02-28T12:58:52;97468.50;;;3.00;60.41
11936;BME280;6027;48.576;9.180;2023-02-28T13:04:10;97464.91;;;3.23;59.98
11936;BME280;6027;48.576;9.180;2023-02-28T13:09:24;97468.13;;;3.16;58.91
11936;BME280;6027;48.576;9.180;2023-02-28T13:11:52;97469.91;;;3.15;59.04
11936;BME280;6027;48.576;9.180;2023-02-28T13:14:28;97455.38;;;3.22;59.20
11936;BME280;6027;48.576;9.180;2023-02-28T13:19:34;97460.22;;;3.38;58.40
11936;BME280;6027;48.576;9.180;2023-02-28T13:22:00;97454.19;;;3.26;58.59
11936;BME280;6027;48.576;9.180;2023-02-28T13:25:02;97456.06;;;3.35;59.00
11936;BME280;6027;48.576;9.180;2023-02-28T13:27:38;97459.03;;;3.42;58.62
11936;BME280;6027;48.576;9.180;2023-02-28T13:33:33;97456.59;;;3.50;58.71
11936;BME280;6027;48.576;9.180;2023-02-28T13:38:43;97460.63;;;3.65;59.08
11936;BME280;6027;48.576;9.180;2023-02-28T13:46:33;97464.91;;;3.87;58.55
11936;BME280;6027;48.576;9.180;2023-02-28T13:51:46;97457.34;;;3.84;57.27
11936;BME280;6027;48.576;9.180;2023-02-28T13:54:20;97461.34;;;3.88;57.94
11936;BME280;6027;48.576;9.180;2023-02-28T14:05:27;97447.50;;;4.18;57.68
11936;BME280;6027;48.576;9.180;2023-02-28T14:08:04;97457.78;;;4.31;57.16
11936;BME280;6027;48.576;9.180;2023-02-28T14:10:36;97446.13;;;4.24;57.17
11936;BME280;6027;48.576;9.180;2023-02-28T14:15:55;97456.19;;;4.19;56.56
11936;BME280;6027;48.576;9.180;2023-02-28T14:18:29;97448.13;;;4.31;57.26
11936;BME280;6027;48.576;9.180;2023-02-28T14:21:24;97447.88;;;4.34;56.75
11936;BME280;6027;48.576;9.180;2023-02-28T14:29:23;97451.78;;;4.40;55.89
11936;BME280;6027;48.576;9.180;2023-02-28T14:32:13;97445.25;;;4.34;55.74
11936;BME280;6027;48.576;9.180;2023-02-28T14:37:36;97460.06;;;4.45;56.00
11936;BME280;6027;48.576;9.180;2023-02-28T14:40:12;97458.00;;;4.48;55.97
11936;BME280;6027;48.576;9.180;2023-02-28T14:42:54;97452.00;;;4.58;55.79
11936;BME280;6027;48.576;9.180;2023-02-28T14:45:22;97455.19;;;4.61;55.37
11936;BME280;6027;48.576;9.180;2023-02-28T14:47:50;97453.78;;;4.57;55.57
11936;BME280;6027;48.576;9.180;2023-02-28T14:50:24;97446.63;;;4.59;55.71
11936;BME280;6027;48.576;9.180;2023-02-28T14:52:55;97450.38;;;4.66;55.89
11936;BME280;6027;48.576;9.180;2023-02-28T14:55:34;97452.41;;;4.63;55.23
11936;BME280;6027;48.576;9.180;2023-02-28T14:58:02;97453.81;;;4.67;54.72
11936;BME280;6027;48.576;9.180;2023-02-28T15:00:32;97451.06;;;4.68;55.07
11936;BME280;6027;48.576;9.180;2023-02-28T15:02:59;97453.31;;;4.82;55.22
11936;BME280;6027;48.576;9.180;2023-02-28T15:05:33;97459.97;;;4.86;54.77
11936;BME280;6027;48.576;9.180;2023-02-28T15:08:14;97453.63;;;4.79;54.07
11936;BME280;6027;48.576;9.180;2023-02-28T15:10:49;97459.16;;;4.86;54.65
11936;BME280;6027;48.576;9.180;2023-02-28T15:13:16;97460.22;;;4.74;54.35
11936;BME280;6027;48.576;9.180;2023-02-28T15:20:50;97458.34;;;4.65;55.08
11936;BME280;6027;48.576;9.180;2023-02-28T15:23:17;97466.53;;;4.71;55.11
11936;BME280;6027;48.576;9.180;2023-02-28T15:25:43;97466.66;;;4.60;54.44
11936;BME280;6027;48.576;9.180;2023-02-28T15:28:15;97459.31;;;4.64;54.38
11936;BME280;6027;48.576;9.180;2023-02-28T15:30:52;97468.16;;;4.63;54.79
11936;BME280;6027;48.576;9.180;2023-02-28T15:33:21;97470.13;;;4.70;55.45
11936;BME280;6027;48.576;9.180;2023-02-28T15:35:47;97458.06;;;4.58;55.55
11936;BME280;6027;48.576;9.180;2023-02-28T15:40:49;97465.03;;;4.48;54.66
11936;BME280;6027;48.576;9.180;2023-02-28T15:43:27;97466.72;;;4.49;54.98
11936;BME280;6027;48.576;9.180;2023-02-28T15:46:02;97462.41;;;4.48;55.19
11936;BME280;6027;48.576;9.180;2023-02-28T15:48:32;97463.09;;;4.40;55.79
11936;BME280;6027;48.576;9.180;2023-02-28T15:51:09;97471.47;;;4.34;55.47
11936;BME280;6027;48.576;9.180;2023-02-28T15:56:30;97467.94;;;4.24;55.97
11936;BME280;6027;48.576;9.180;2023-02-28T15:58:59;97475.28;;;4.30;56.29
11936;BME280;6027;48.576;9.180;2023-02-28T16:01:28;97466.84;;;4.27;56.17
11936;BME280;6027;48.576;9.180;2023-02-28T16:04:01;97468.47;;;4.18;56.55
11936;BME280;6027;48.576;9.180;2023-02-28T16:06:36;97476.00;;;4.11;56.61
11936;BME280;6027;48.576;9.180;2023-02-28T16:09:05;97466.97;;;4.04;57.07
11936;BME280;6027;48.576;9.180;2023-02-28T16:11:34;97462.00;;;4.01;57.02
11936;BME280;6027;48.576;9.180;2023-02-28T16:14:00;97470.88;;;4.10;57.36
11936;BME280;6027;48.576;9.180;2023-02-28T16:16:26;97476.69;;;4.13;57.45